createdAt,value
2023-05-03T00:14:01.514Z,12.30
2023-05-03T00:16:40.138Z,12.30
2023-05-03T00:19:30.410Z,12.20
2023-05-03T00:22:10.681Z,12.20
2023-05-03T00:24:54.038Z,12.20
2023-05-03T00:41:14.493Z,12.00
2023-05-03T00:43:50.309Z,12.00
2023-05-03T00:46:24.628Z,12.00
2023-05-03T00:48:59.642Z,11.90
2023-05-03T00:51:36.224Z,11.90
2023-05-03T00:54:10.547Z,11.90
2023-05-03T00:56:51.609Z,11.90
2023-05-03T00:59:27.964Z,11.90
2023-05-03T01:02:02.471Z,11.90
2023-05-03T01:04:39.699Z,11.90
2023-05-03T01:07:25.293Z,11.90
2023-05-03T01:10:06.331Z,11.90
2023-05-03T01:12:52.036Z,11.90
2023-05-03T01:15:38.189Z,11.90
2023-05-03T01:18:17.014Z,11.90
2023-05-03T01:20:54.878Z,11.90
2023-05-03T01:23:45.331Z,11.80
2023-05-03T01:26:25.208Z,11.80
2023-05-03T01:29:00.695Z,11.80
2023-05-03T01:35:29.926Z,11.70
2023-05-03T01:38:05.820Z,11.80
2023-05-03T02:04:24.721Z,11.80
2023-05-03T02:07:07.190Z,11.80
2023-05-03T02:10:16.598Z,11.70
2023-05-03T02:12:57.947Z,11.70
2023-05-03T02:15:37.141Z,11.70
2023-05-03T02:18:16.835Z,11.60
2023-05-03T02:20:52.915Z,11.70
2023-05-03T02:23:29.830Z,11.60
2023-05-03T02:26:04.447Z,11.60
2023-05-03T02:28:39.812Z,11.70
2023-05-03T02:31:13.817Z,11.60
2023-05-03T02:33:49.862Z,11.60
2023-05-03T02:36:25.576Z,11.60
2023-05-03T02:39:00.132Z,11.60
2023-05-03T02:41:34.439Z,11.60
2023-05-03T02:44:09.292Z,11.60
2023-05-03T02:46:44.153Z,11.50
2023-05-03T02:49:18.446Z,11.50
2023-05-03T02:51:54.274Z,11.50
2023-05-03T02:54:28.113Z,11.50
2023-05-03T02:57:03.410Z,11.50
2023-05-03T02:59:37.690Z,11.50
2023-05-03T03:02:11.960Z,11.40
2023-05-03T03:04:46.065Z,11.40
2023-05-03T03:07:21.560Z,11.40
2023-05-03T03:09:55.913Z,11.40
2023-05-03T03:12:31.124Z,11.50
2023-05-03T03:15:08.293Z,11.40
2023-05-03T03:17:42.911Z,11.40
2023-05-03T03:20:17.914Z,11.40
2023-05-03T03:22:56.156Z,11.40
2023-05-03T03:25:30.872Z,11.40
2023-05-03T03:28:05.696Z,11.40
2023-05-03T03:30:40.017Z,11.40
2023-05-03T03:33:25.754Z,11.40
2023-05-03T03:36:06.824Z,11.40
2023-05-03T03:38:46.388Z,11.40
2023-05-03T03:41:21.611Z,11.40
2023-05-03T03:43:56.745Z,11.40
2023-05-03T03:46:31.919Z,11.50
2023-05-03T03:49:08.197Z,11.50
2023-05-03T03:51:43.008Z,11.50
2023-05-03T03:54:18.865Z,11.40
2023-05-03T03:56:56.306Z,11.40
2023-05-03T03:59:30.126Z,11.50
2023-05-03T04:02:05.851Z,11.50
2023-05-03T04:04:39.914Z,11.50
2023-05-03T04:07:14.098Z,11.50
2023-05-03T04:09:50.490Z,11.50
2023-05-03T04:12:24.808Z,11.50
2023-05-03T04:14:58.552Z,11.50
2023-05-03T04:17:35.144Z,11.50
2023-05-03T04:20:14.359Z,11.50
2023-05-03T04:22:54.198Z,11.50
2023-05-03T04:25:33.438Z,11.50
2023-05-03T04:28:13.818Z,11.50
2023-05-03T04:30:52.192Z,11.50
2023-05-03T04:33:31.873Z,11.50
2023-05-03T04:36:11.240Z,11.50
2023-05-03T04:38:47.155Z,11.50
2023-05-03T04:41:24.855Z,11.50
2023-05-03T04:44:03.422Z,11.50
2023-05-03T04:46:39.964Z,11.50
2023-05-03T04:49:15.067Z,11.60
2023-05-03T04:51:49.644Z,11.50
2023-05-03T04:54:24.899Z,11.60
2023-05-03T04:57:00.474Z,11.60
2023-05-03T05:50:58.999Z,11.90
2023-05-03T05:53:41.410Z,12.00
2023-05-03T05:56:19.603Z,12.00
2023-05-03T05:58:57.469Z,12.00
2023-05-03T06:01:36.727Z,12.00
2023-05-03T06:04:11.363Z,12.00
2023-05-03T06:17:26.858Z,12.10
2023-05-03T06:20:45.378Z,12.10
2023-05-03T06:23:23.527Z,12.10
2023-05-03T06:26:04.557Z,12.20
2023-05-03T06:38:01.756Z,12.20
2023-05-03T06:40:41.031Z,12.10
2023-05-03T06:43:22.335Z,12.10
2023-05-03T06:46:08.363Z,12.10
2023-05-03T07:36:39.424Z,12.50
2023-05-03T07:48:04.031Z,12.60
2023-05-03T07:59:42.332Z,12.50
2023-05-03T08:02:19.072Z,12.60
2023-05-03T08:04:55.027Z,12.60
2023-05-03T08:07:32.525Z,12.60
2023-05-03T08:10:28.175Z,12.60
2023-05-03T08:13:02.489Z,12.60
2023-05-03T08:15:36.832Z,12.50
2023-05-03T08:18:12.100Z,12.50
2023-05-03T08:20:47.290Z,12.60
2023-05-03T08:23:22.120Z,12.60
2023-05-03T08:25:59.278Z,12.60
2023-05-03T08:28:33.718Z,12.60
2023-05-03T08:31:38.117Z,12.70
2023-05-03T08:34:18.116Z,12.70
2023-05-03T08:37:18.628Z,12.80
2023-05-03T08:39:54.215Z,12.80
2023-05-03T08:42:53.669Z,12.80
2023-05-03T08:45:28.314Z,12.80
2023-05-03T08:48:03.898Z,12.80
2023-05-03T08:50:58.248Z,12.80
2023-05-03T08:59:30.050Z,12.90
2023-05-03T09:02:04.751Z,12.80
2023-05-03T09:04:39.806Z,12.70
2023-05-03T09:07:17.087Z,12.70
2023-05-03T09:09:51.820Z,12.70
2023-05-03T09:12:37.038Z,12.80
2023-05-03T09:15:23.164Z,12.80
2023-05-03T09:18:20.920Z,12.90
2023-05-03T09:20:56.026Z,12.90
2023-05-03T09:23:33.297Z,13.00
2023-05-03T09:26:07.747Z,13.00
2023-05-03T09:28:45.056Z,13.00
2023-05-03T09:31:19.426Z,13.10
2023-05-03T09:33:55.821Z,13.10
2023-05-03T09:36:46.230Z,13.10
2023-05-03T09:39:22.707Z,13.10
2023-05-03T09:41:59.449Z,13.10
2023-05-03T09:45:50.644Z,13.10
2023-05-03T09:48:28.736Z,13.10
2023-05-03T09:51:02.705Z,13.10
2023-05-03T09:53:39.654Z,13.10
2023-05-03T09:57:22.076Z,13.20
2023-05-03T10:00:32.183Z,13.10
2023-05-03T10:03:16.401Z,13.10
2023-05-03T10:05:59.175Z,13.10
2023-05-03T10:11:38.204Z,13.10
2023-05-03T10:14:23.212Z,13.20
2023-05-03T10:17:12.436Z,13.30
2023-05-03T10:19:53.315Z,13.30
2023-05-03T10:22:27.486Z,13.40
2023-05-03T10:25:19.647Z,13.50
2023-05-03T10:27:54.586Z,13.50
2023-05-03T10:30:31.713Z,13.40
2023-05-03T10:36:59.227Z,13.50
2023-05-03T10:39:36.062Z,13.60
2023-05-03T10:42:13.236Z,13.70
2023-05-03T10:44:53.726Z,13.70
2023-05-03T10:47:28.083Z,13.70
2023-05-03T10:50:30.020Z,13.80
2023-05-03T10:53:03.798Z,13.90
2023-05-03T10:55:38.434Z,13.90
2023-05-03T10:58:35.254Z,13.90
2023-05-03T11:01:11.831Z,14.00
2023-05-03T11:03:53.419Z,14.00
2023-05-03T11:06:34.525Z,14.10
2023-05-03T11:09:10.188Z,14.20
2023-05-03T11:11:44.682Z,14.20
2023-05-03T11:14:18.693Z,14.30
2023-05-03T11:16:52.737Z,14.40
2023-05-03T11:19:27.163Z,14.40
2023-05-03T11:22:05.845Z,14.50
2023-05-03T11:24:39.913Z,14.50
2023-05-03T11:27:27.127Z,14.40
2023-05-03T11:30:03.825Z,14.40
2023-05-03T11:32:38.506Z,14.40
2023-05-03T11:35:15.452Z,14.40
2023-05-03T11:37:51.428Z,14.40
2023-05-03T11:40:26.280Z,14.40
2023-05-03T11:43:01.272Z,14.40
2023-05-03T11:45:44.264Z,14.30
2023-05-03T11:48:18.617Z,14.20
2023-05-03T11:50:56.104Z,14.10
2023-05-03T11:53:31.627Z,14.10
2023-05-03T11:56:08.790Z,14.00
2023-05-03T11:58:54.429Z,13.90
2023-05-03T12:01:30.319Z,13.70
2023-05-03T12:04:08.211Z,13.60
2023-05-03T12:06:45.011Z,13.50
2023-05-03T12:09:22.737Z,13.40
2023-05-03T12:11:59.078Z,13.30
2023-05-03T12:14:59.349Z,13.20
2023-05-03T12:17:38.666Z,13.20
2023-05-03T12:22:58.471Z,13.00
2023-05-03T12:25:42.380Z,12.90
2023-05-03T12:28:21.140Z,12.80
2023-05-03T12:30:59.044Z,12.80
2023-05-03T12:33:34.111Z,12.80
2023-05-03T12:36:09.798Z,12.70
2023-05-03T12:38:44.780Z,12.60
2023-05-03T12:41:50.390Z,12.60
2023-05-03T12:44:16.849Z,12.50
2023-05-03T12:46:53.867Z,12.30
2023-05-03T12:49:28.081Z,12.20
2023-05-03T12:52:34.669Z,12.10
2023-05-03T12:54:56.370Z,12.10
2023-05-03T12:57:36.711Z,12.00
2023-05-03T13:00:15.056Z,12.00
2023-05-03T13:08:09.792Z,11.80
2023-05-03T13:10:45.478Z,11.70
2023-05-03T13:13:23.526Z,11.70
2023-05-03T13:15:57.517Z,11.60
2023-05-03T13:18:32.131Z,11.60
2023-05-03T13:21:06.680Z,11.50
2023-05-03T13:23:41.985Z,11.60
2023-05-03T13:26:15.952Z,11.50
2023-05-03T13:28:51.845Z,11.50
2023-05-03T13:31:27.469Z,11.40
2023-05-03T13:34:01.455Z,11.40
2023-05-03T13:36:35.813Z,11.40
2023-05-03T13:39:10.633Z,11.40
2023-05-03T13:41:47.582Z,11.40
2023-05-03T13:44:25.668Z,11.50
2023-05-03T13:46:59.510Z,11.50
2023-05-03T13:49:33.210Z,11.40
2023-05-03T13:52:07.024Z,11.40
2023-05-03T13:54:42.483Z,11.50
2023-05-03T13:57:16.503Z,11.40
2023-05-03T13:59:51.855Z,11.50
2023-05-03T14:02:25.779Z,11.50
2023-05-03T14:04:59.627Z,11.50
2023-05-03T14:07:33.465Z,11.50
2023-05-03T14:10:09.293Z,11.40
2023-05-03T14:12:54.624Z,11.50
2023-05-03T14:15:34.652Z,11.50
2023-05-03T14:18:12.122Z,11.50
2023-05-03T14:20:50.876Z,11.40
2023-05-03T14:23:25.501Z,11.50
2023-05-03T14:26:07.163Z,11.40
2023-05-03T14:28:48.646Z,11.50
2023-05-03T14:31:24.753Z,11.50
2023-05-03T14:34:00.328Z,11.50
2023-05-03T14:36:39.382Z,11.50
2023-05-03T14:39:16.665Z,11.40
2023-05-03T14:41:51.286Z,11.40
2023-05-03T14:44:25.614Z,11.50
2023-05-03T14:47:04.753Z,11.50
2023-05-03T14:49:40.990Z,11.50
2023-05-03T14:52:16.778Z,11.50
2023-05-03T14:54:51.507Z,11.50
2023-05-03T14:57:25.808Z,11.50
2023-05-03T15:00:02.398Z,11.50
2023-05-03T15:02:38.196Z,11.50
2023-05-03T15:05:12.942Z,11.60
2023-05-03T15:07:47.228Z,11.50
2023-05-03T15:10:22.000Z,11.50
2023-05-03T15:12:56.226Z,11.50
2023-05-03T15:15:33.978Z,11.50
2023-05-03T15:18:18.450Z,11.40
2023-05-03T15:20:53.712Z,11.40
2023-05-03T15:23:45.089Z,11.50
2023-05-03T15:26:34.449Z,11.40
2023-05-03T15:50:29.291Z,11.30
2023-05-03T15:53:32.058Z,11.20
2023-05-03T16:20:26.044Z,11.00
2023-05-03T16:38:00.235Z,10.70
2023-05-03T16:40:34.166Z,10.70
2023-05-03T16:43:11.538Z,10.70
2023-05-03T16:45:45.629Z,10.70
2023-05-03T16:48:22.035Z,10.70
2023-05-03T16:51:02.412Z,10.70
2023-05-03T16:54:14.789Z,10.70
2023-05-03T16:57:00.870Z,10.80
2023-05-03T16:59:37.270Z,10.80
2023-05-03T17:02:11.721Z,10.80
2023-05-03T17:04:50.863Z,10.80
2023-05-03T17:07:25.577Z,10.80
2023-05-03T17:10:01.616Z,10.80
2023-05-03T17:12:37.213Z,10.80
2023-05-03T17:15:14.058Z,10.80
2023-05-03T17:18:04.232Z,10.80
2023-05-03T17:20:42.439Z,10.80
2023-05-03T17:23:38.711Z,10.70
2023-05-03T17:26:19.413Z,10.70
2023-05-03T17:53:00.048Z,10.60
2023-05-03T17:57:22.586Z,10.50
2023-05-03T18:00:07.847Z,10.60
2023-05-03T18:02:46.574Z,10.50
2023-05-03T18:05:26.109Z,10.50
2023-05-03T18:08:17.957Z,10.50
2023-05-03T18:10:56.175Z,10.40
2023-05-03T18:13:30.311Z,10.40
2023-05-03T18:16:09.162Z,10.40
2023-05-03T18:18:43.951Z,10.40
2023-05-03T18:21:19.659Z,10.30
2023-05-03T18:23:57.973Z,10.30
2023-05-03T18:26:32.680Z,10.30
2023-05-03T18:29:07.098Z,10.20
2023-05-03T18:31:44.719Z,10.20
2023-05-03T18:34:23.064Z,10.20
2023-05-03T18:36:57.606Z,10.20
2023-05-03T18:51:42.499Z,10.20
2023-05-03T18:55:06.957Z,10.20
2023-05-03T18:58:36.557Z,10.20
2023-05-03T19:01:35.988Z,10.20
2023-05-03T19:04:23.594Z,10.20
2023-05-03T19:16:58.026Z,10.20
2023-05-03T19:19:33.104Z,10.10
2023-05-03T19:22:31.823Z,10.10
2023-05-03T19:25:36.538Z,10.10
2023-05-03T19:28:34.865Z,10.20
2023-05-03T19:31:14.124Z,10.10
2023-05-03T19:33:58.998Z,10.10
2023-05-03T19:36:46.205Z,10.10
2023-05-03T19:39:38.296Z,10.10
2023-05-03T19:42:15.373Z,10.10
2023-05-03T19:45:01.281Z,10.10
2023-05-03T19:47:50.942Z,10.10
2023-05-03T19:55:34.764Z,10.10
2023-05-03T19:58:40.414Z,10.00
2023-05-03T20:01:18.454Z,10.00
2023-05-03T20:03:53.592Z,10.00
2023-05-03T20:06:27.972Z,10.00
2023-05-03T20:09:02.601Z,10.00
2023-05-03T20:11:38.388Z,10.00
2023-05-03T20:14:12.724Z,10.00
2023-05-03T20:16:48.811Z,9.90
2023-05-03T20:19:23.621Z,9.90
2023-05-03T20:21:58.520Z,9.90
2023-05-03T20:24:32.974Z,9.90
2023-05-03T20:27:07.075Z,9.90
2023-05-03T20:29:41.078Z,9.90
2023-05-03T20:32:17.112Z,9.90
2023-05-03T20:34:51.687Z,9.90
2023-05-03T20:37:27.733Z,10.00
2023-05-03T20:40:02.330Z,10.00
2023-05-03T20:42:36.754Z,10.00
2023-05-03T20:45:11.430Z,10.00
2023-05-03T20:47:47.130Z,10.00
2023-05-03T20:50:21.456Z,10.00
2023-05-03T20:52:56.587Z,9.90
2023-05-03T20:55:30.612Z,9.90
2023-05-03T20:58:05.040Z,9.90
2023-05-03T21:00:39.271Z,9.90
2023-05-03T21:03:15.602Z,9.90
2023-05-03T21:05:50.023Z,9.90
2023-05-03T21:08:24.753Z,9.90
2023-05-03T21:10:58.988Z,9.90
2023-05-03T21:13:35.939Z,9.90
2023-05-03T21:16:10.873Z,9.90
2023-05-03T21:18:46.413Z,9.90
2023-05-03T21:21:21.075Z,9.90
2023-05-03T21:23:55.147Z,9.90
2023-05-03T21:26:29.376Z,9.90
2023-05-03T21:29:03.706Z,9.90
2023-05-03T21:31:37.751Z,9.90
2023-05-03T21:34:13.130Z,9.90
2023-05-03T21:36:47.051Z,9.90
2023-05-03T21:39:21.697Z,9.90
2023-05-03T21:41:55.911Z,9.90
2023-05-03T21:44:29.640Z,9.90
2023-05-03T21:47:04.184Z,9.90
2023-05-03T21:49:39.357Z,9.80
2023-05-03T21:52:13.131Z,9.80
2023-05-03T21:54:47.835Z,9.80
2023-05-03T21:57:21.666Z,9.80
2023-05-03T21:59:56.282Z,9.80
2023-05-03T22:02:30.002Z,9.80
2023-05-03T22:05:05.990Z,9.80
2023-05-03T22:07:39.683Z,9.80
2023-05-03T22:10:13.308Z,9.70
2023-05-03T22:12:47.278Z,9.80
2023-05-03T22:15:21.211Z,9.80
2023-05-03T22:17:55.021Z,9.80
2023-05-03T22:20:31.048Z,9.70
2023-05-03T22:23:04.938Z,9.70
2023-05-03T22:25:38.689Z,9.70
2023-05-03T22:28:12.436Z,9.70
2023-05-03T22:30:47.001Z,9.70
2023-05-03T22:33:20.897Z,9.70
2023-05-03T22:35:56.193Z,9.70
2023-05-03T22:38:30.220Z,9.70
2023-05-03T22:41:04.001Z,9.60
2023-05-03T22:43:37.776Z,9.60
2023-05-03T22:46:11.389Z,9.60
2023-05-03T22:48:45.093Z,9.50
2023-05-03T22:51:20.613Z,9.50
2023-05-03T22:53:54.252Z,9.50
2023-05-03T22:56:27.866Z,9.50
2023-05-03T22:59:01.577Z,9.50
2023-05-03T23:01:35.827Z,9.50
2023-05-03T23:04:09.564Z,9.50
2023-05-03T23:06:44.781Z,9.50
2023-05-03T23:09:18.494Z,9.50
2023-05-03T23:11:52.447Z,9.50
2023-05-03T23:14:27.100Z,9.50
2023-05-03T23:17:01.078Z,9.40
2023-05-03T23:19:35.850Z,9.40
2023-05-03T23:22:11.504Z,9.40
2023-05-03T23:24:45.638Z,9.40
2023-05-03T23:27:20.269Z,9.40
2023-05-03T23:29:55.314Z,9.40
2023-05-03T23:32:30.286Z,9.40
2023-05-03T23:35:05.565Z,9.40
2023-05-03T23:37:41.504Z,9.40
2023-05-03T23:40:16.470Z,9.30
2023-05-03T23:42:51.008Z,9.30
2023-05-03T23:45:27.117Z,9.30
2023-05-03T23:48:01.613Z,9.30
2023-05-03T23:50:36.211Z,9.30
2023-05-03T23:53:11.986Z,9.30
2023-05-03T23:55:46.233Z,9.30
2023-05-03T23:58:20.202Z,9.30
